Annada, Missouri
Current Conditions -  °F | °C
As of 9:55 AM on Thursday 30 Oct 2014 (Local Time) from KPPQ Reporting Station
Scattered Clouds Scattered Clouds  
Wind Chill: 46°   Ceiling: Unl
Heat Index: 48°   Visibility: 10mi
Dew Point: 40°   Wind: 5mph
Humidity: 74%   Direction: 160°SSE
Pressure: 30.13"   Gusts: NA
Location:  39.26°N, 90.83°W
Report Text: KPPQ 301455Z AUTO 16004KT 10SM SCT085 09/04 A3013 RMK AO2 T00880044
Loading
Personal Weather Stations






























Interactive Weather Map
Tropical Storm Tracking
New forecast layout! Learn more

10-Day Weather Forecast

Advertisements
Track Severe Weather on mobile